sensor_id;sensor_type;location;lat;lon;timestamp;temperature;humidity
52016;DHT22;38032;53.326;6.472;2023-12-20T00:01:26;7.30;99.90
52016;DHT22;38032;53.326;6.472;2023-12-20T00:03:52;7.30;99.90
52016;DHT22;38032;53.326;6.472;2023-12-20T00:06:18;7.30;99.90
52016;DHT22;38032;53.326;6.472;2023-12-20T00:08:44;7.30;99.90
52016;DHT22;38032;53.326;6.472;2023-12-20T00:11:10;7.20;99.90
52016;DHT22;38032;53.326;6.472;2023-12-20T00:13:35;7.20;99.90
52016;DHT22;38032;53.326;6.472;2023-12-20T00:16:01;7.20;99.90
52016;DHT22;38032;53.326;6.472;2023-12-20T00:18:27;7.20;99.90
52016;DHT22;38032;53.326;6.472;2023-12-20T00:20:53;7.20;99.90
52016;DHT22;38032;53.326;6.472;2023-12-20T00:23:19;7.10;99.90
52016;DHT22;38032;53.326;6.472;2023-12-20T00:25:45;7.10;99.90
52016;DHT22;38032;53.326;6.472;2023-12-20T00:28:11;7.10;99.90
52016;DHT22;38032;53.326;6.472;2023-12-20T00:30:37;7.10;99.90
52016;DHT22;38032;53.326;6.472;2023-12-20T00:33:03;7.10;99.90
52016;DHT22;38032;53.326;6.472;2023-12-20T00:35:29;7.00;99.90
52016;DHT22;38032;53.326;6.472;2023-12-20T00:37:54;7.00;99.90
52016;DHT22;38032;53.326;6.472;2023-12-20T00:40:20;7.10;99.90
52016;DHT22;38032;53.326;6.472;2023-12-20T00:42:46;7.10;99.90
52016;DHT22;38032;53.326;6.472;2023-12-20T00:45:12;7.10;99.90
52016;DHT22;38032;53.326;6.472;2023-12-20T00:47:38;7.10;99.90
52016;DHT22;38032;53.326;6.472;2023-12-20T00:50:05;7.20;99.90
52016;DHT22;38032;53.326;6.472;2023-12-20T00:52:31;7.20;99.90
52016;DHT22;38032;53.326;6.472;2023-12-20T00:54:56;7.20;99.90
52016;DHT22;38032;53.326;6.472;2023-12-20T00:57:22;7.20;99.90
52016;DHT22;38032;53.326;6.472;2023-12-20T00:59:49;7.20;99.90
52016;DHT22;38032;53.326;6.472;2023-12-20T01:02:14;7.20;99.90
52016;DHT22;38032;53.326;6.472;2023-12-20T01:04:40;7.20;99.90
52016;DHT22;38032;53.326;6.472;2023-12-20T01:07:06;7.30;99.90
52016;DHT22;38032;53.326;6.472;2023-12-20T01:09:32;7.20;99.90
52016;DHT22;38032;53.326;6.472;2023-12-20T01:11:58;7.20;99.90
52016;DHT22;38032;53.326;6.472;2023-12-20T01:14:24;7.20;99.90
52016;DHT22;38032;53.326;6.472;2023-12-20T01:16:50;7.20;99.90
52016;DHT22;38032;53.326;6.472;2023-12-20T01:19:16;7.20;99.90
52016;DHT22;38032;53.326;6.472;2023-12-20T01:21:42;7.20;99.90
52016;DHT22;38032;53.326;6.472;2023-12-20T01:24:07;7.20;99.90
52016;DHT22;38032;53.326;6.472;2023-12-20T01:26:33;7.20;99.90
52016;DHT22;38032;53.326;6.472;2023-12-20T01:28:59;7.20;99.90
52016;DHT22;38032;53.326;6.472;2023-12-20T01:31:25;7.30;99.90
52016;DHT22;38032;53.326;6.472;2023-12-20T01:33:53;7.30;99.90
52016;DHT22;38032;53.326;6.472;2023-12-20T01:36:18;7.30;99.90
52016;DHT22;38032;53.326;6.472;2023-12-20T01:38:45;7.20;99.90
52016;DHT22;38032;53.326;6.472;2023-12-20T01:41:11;7.20;99.90
52016;DHT22;38032;53.326;6.472;2023-12-20T01:43:36;7.20;99.90
52016;DHT22;38032;53.326;6.472;2023-12-20T01:46:02;7.10;99.90
52016;DHT22;38032;53.326;6.472;2023-12-20T01:48:29;7.10;99.90
52016;DHT22;38032;53.326;6.472;2023-12-20T01:50:57;7.10;99.90
52016;DHT22;38032;53.326;6.472;2023-12-20T01:53:24;7.10;99.90
52016;DHT22;38032;53.326;6.472;2023-12-20T01:55:52;7.10;99.90
52016;DHT22;38032;53.326;6.472;2023-12-20T01:58:20;7.10;99.90
52016;DHT22;38032;53.326;6.472;2023-12-20T02:00:46;7.20;99.90
52016;DHT22;38032;53.326;6.472;2023-12-20T02:03:13;7.20;99.90
52016;DHT22;38032;53.326;6.472;2023-12-20T02:05:39;7.20;99.90
52016;DHT22;38032;53.326;6.472;2023-12-20T02:08:06;7.20;99.90
52016;DHT22;38032;53.326;6.472;2023-12-20T02:10:32;7.20;99.90
52016;DHT22;38032;53.326;6.472;2023-12-20T02:12:58;7.20;99.90
52016;DHT22;38032;53.326;6.472;2023-12-20T02:15:24;7.10;99.90
52016;DHT22;38032;53.326;6.472;2023-12-20T02:17:50;7.10;99.90
52016;DHT22;38032;53.326;6.472;2023-12-20T02:20:16;7.10;99.90
52016;DHT22;38032;53.326;6.472;2023-12-20T02:22:42;7.00;99.90
52016;DHT22;38032;53.326;6.472;2023-12-20T02:25:08;7.10;99.90
52016;DHT22;38032;53.326;6.472;2023-12-20T02:27:34;7.10;99.90
52016;DHT22;38032;53.326;6.472;2023-12-20T02:30:00;7.10;99.90
52016;DHT22;38032;53.326;6.472;2023-12-20T02:32:26;7.10;99.90
52016;DHT22;38032;53.326;6.472;2023-12-20T02:34:53;7.10;99.90
52016;DHT22;38032;53.326;6.472;2023-12-20T02:37:19;7.10;99.90
52016;DHT22;38032;53.326;6.472;2023-12-20T02:39:45;7.10;99.90
52016;DHT22;38032;53.326;6.472;2023-12-20T02:42:11;7.20;99.90
52016;DHT22;38032;53.326;6.472;2023-12-20T02:44:36;7.20;99.90
52016;DHT22;38032;53.326;6.472;2023-12-20T02:47:03;7.20;99.90
52016;DHT22;38032;53.326;6.472;2023-12-20T02:49:28;7.20;99.90
52016;DHT22;38032;53.326;6.472;2023-12-20T02:51:54;7.20;99.90
52016;DHT22;38032;53.326;6.472;2023-12-20T02:54:20;7.20;99.90
52016;DHT22;38032;53.326;6.472;2023-12-20T02:56:46;7.20;99.90
52016;DHT22;38032;53.326;6.472;2023-12-20T02:59:12;7.20;99.90
52016;DHT22;38032;53.326;6.472;2023-12-20T03:01:43;7.20;99.90
52016;DHT22;38032;53.326;6.472;2023-12-20T03:04:10;7.20;99.90
52016;DHT22;38032;53.326;6.472;2023-12-20T03:06:35;7.10;99.90
52016;DHT22;38032;53.326;6.472;2023-12-20T03:09:01;7.10;99.90
52016;DHT22;38032;53.326;6.472;2023-12-20T03:11:27;7.10;99.90
52016;DHT22;38032;53.326;6.472;2023-12-20T03:13:54;7.00;99.90
52016;DHT22;38032;53.326;6.472;2023-12-20T03:16:20;7.00;99.90
52016;DHT22;38032;53.326;6.472;2023-12-20T03:18:46;7.00;99.90
52016;DHT22;38032;53.326;6.472;2023-12-20T03:21:12;7.00;99.90
52016;DHT22;38032;53.326;6.472;2023-12-20T03:23:37;7.00;99.90
52016;DHT22;38032;53.326;6.472;2023-12-20T03:26:07;7.00;99.90
52016;DHT22;38032;53.326;6.472;2023-12-20T03:28:33;7.00;99.90
52016;DHT22;38032;53.326;6.472;2023-12-20T03:30:59;7.00;99.90
52016;DHT22;38032;53.326;6.472;2023-12-20T03:33:25;7.00;99.90
52016;DHT22;38032;53.326;6.472;2023-12-20T03:35:51;6.90;99.90
52016;DHT22;38032;53.326;6.472;2023-12-20T03:38:16;6.90;99.90
52016;DHT22;38032;53.326;6.472;2023-12-20T03:40:43;6.90;99.90
52016;DHT22;38032;53.326;6.472;2023-12-20T03:43:09;6.80;99.90
52016;DHT22;38032;53.326;6.472;2023-12-20T03:45:34;6.80;99.90
52016;DHT22;38032;53.326;6.472;2023-12-20T03:48:00;6.80;99.90
52016;DHT22;38032;53.326;6.472;2023-12-20T03:50:26;6.80;99.90
52016;DHT22;38032;53.326;6.472;2023-12-20T03:52:52;6.80;99.90
52016;DHT22;38032;53.326;6.472;2023-12-20T03:55:18;6.90;99.90
52016;DHT22;38032;53.326;6.472;2023-12-20T03:57:44;6.90;99.90
52016;DHT22;38032;53.326;6.472;2023-12-20T04:00:11;6.90;99.90
52016;DHT22;38032;53.326;6.472;2023-12-20T04:02:37;6.80;99.90
52016;DHT22;38032;53.326;6.472;2023-12-20T04:05:04;6.80;99.90
52016;DHT22;38032;53.326;6.472;2023-12-20T04:07:30;6.80;99.90
52016;DHT22;38032;53.326;6.472;2023-12-20T04:09:56;6.90;99.90
52016;DHT22;38032;53.326;6.472;2023-12-20T04:12:22;6.90;99.90
52016;DHT22;38032;53.326;6.472;2023-12-20T04:14:48;6.90;99.90
52016;DHT22;38032;53.326;6.472;2023-12-20T04:17:15;6.90;99.90
52016;DHT22;38032;53.326;6.472;2023-12-20T04:19:42;6.90;99.90
52016;DHT22;38032;53.326;6.472;2023-12-20T04:22:08;6.90;99.90
52016;DHT22;38032;53.326;6.472;2023-12-20T04:24:34;7.00;99.90
52016;DHT22;38032;53.326;6.472;2023-12-20T04:27:00;7.00;99.90
52016;DHT22;38032;53.326;6.472;2023-12-20T04:29:26;7.00;99.90
52016;DHT22;38032;53.326;6.472;2023-12-20T04:31:51;7.10;99.90
52016;DHT22;38032;53.326;6.472;2023-12-20T04:34:17;7.10;99.90
52016;DHT22;38032;53.326;6.472;2023-12-20T04:36:44;7.10;99.90
52016;DHT22;38032;53.326;6.472;2023-12-20T04:39:11;7.10;99.90
52016;DHT22;38032;53.326;6.472;2023-12-20T04:41:37;7.10;99.90
52016;DHT22;38032;53.326;6.472;2023-12-20T04:44:03;7.10;99.90
52016;DHT22;38032;53.326;6.472;2023-12-20T04:46:28;7.20;99.90
52016;DHT22;38032;53.326;6.472;2023-12-20T04:48:54;7.20;99.90
52016;DHT22;38032;53.326;6.472;2023-12-20T04:51:21;7.30;99.90
52016;DHT22;38032;53.326;6.472;2023-12-20T04:53:47;7.30;99.90
52016;DHT22;38032;53.326;6.472;2023-12-20T04:56:12;7.30;99.90
52016;DHT22;38032;53.326;6.472;2023-12-20T04:58:38;7.30;99.90
52016;DHT22;38032;53.326;6.472;2023-12-20T05:01:06;7.40;99.90
52016;DHT22;38032;53.326;6.472;2023-12-20T05:03:32;7.40;99.90
52016;DHT22;38032;53.326;6.472;2023-12-20T05:05:58;7.40;99.90
52016;DHT22;38032;53.326;6.472;2023-12-20T05:08:24;7.40;99.90
52016;DHT22;38032;53.326;6.472;2023-12-20T05:10:57;7.40;99.90
52016;DHT22;38032;53.326;6.472;2023-12-20T05:13:22;7.40;99.90
52016;DHT22;38032;53.326;6.472;2023-12-20T05:15:48;7.50;99.90
52016;DHT22;38032;53.326;6.472;2023-12-20T05:18:14;7.50;99.90
52016;DHT22;38032;53.326;6.472;2023-12-20T05:20:40;7.50;99.90
52016;DHT22;38032;53.326;6.472;2023-12-20T05:23:06;7.50;99.90
52016;DHT22;38032;53.326;6.472;2023-12-20T05:25:32;7.60;99.90
52016;DHT22;38032;53.326;6.472;2023-12-20T05:27:58;7.60;99.90
52016;DHT22;38032;53.326;6.472;2023-12-20T05:30:23;7.60;99.90
52016;DHT22;38032;53.326;6.472;2023-12-20T05:32:49;7.60;99.90
52016;DHT22;38032;53.326;6.472;2023-12-20T05:35:15;7.60;99.90
52016;DHT22;38032;53.326;6.472;2023-12-20T05:37:41;7.60;99.90
52016;DHT22;38032;53.326;6.472;2023-12-20T05:40:08;7.70;99.90
52016;DHT22;38032;53.326;6.472;2023-12-20T05:42:36;7.70;99.90
52016;DHT22;38032;53.326;6.472;2023-12-20T05:45:03;7.70;99.90
52016;DHT22;38032;53.326;6.472;2023-12-20T05:47:29;7.70;99.90
52016;DHT22;38032;53.326;6.472;2023-12-20T05:49:55;7.80;99.90
52016;DHT22;38032;53.326;6.472;2023-12-20T05:52:21;7.70;99.90
52016;DHT22;38032;53.326;6.472;2023-12-20T05:54:47;7.70;99.90
52016;DHT22;38032;53.326;6.472;2023-12-20T05:57:13;7.80;99.90
52016;DHT22;38032;53.326;6.472;2023-12-20T05:59:39;7.80;99.90
52016;DHT22;38032;53.326;6.472;2023-12-20T06:02:05;7.80;99.90
52016;DHT22;38032;53.326;6.472;2023-12-20T06:04:31;7.80;99.90
52016;DHT22;38032;53.326;6.472;2023-12-20T06:06:57;7.80;99.90
52016;DHT22;38032;53.326;6.472;2023-12-20T06:09:23;7.80;99.90
52016;DHT22;38032;53.326;6.472;2023-12-20T06:11:49;7.80;99.90
52016;DHT22;38032;53.326;6.472;2023-12-20T06:14:16;7.80;99.90
52016;DHT22;38032;53.326;6.472;2023-12-20T06:16:43;7.80;99.90
52016;DHT22;38032;53.326;6.472;2023-12-20T06:19:08;7.80;99.90
52016;DHT22;38032;53.326;6.472;2023-12-20T06:21:34;7.80;99.90
52016;DHT22;38032;53.326;6.472;2023-12-20T06:24:00;7.80;99.90
52016;DHT22;38032;53.326;6.472;2023-12-20T06:26:26;7.80;99.90
52016;DHT22;38032;53.326;6.472;2023-12-20T06:28:52;7.80;99.90
52016;DHT22;38032;53.326;6.472;2023-12-20T06:31:17;7.80;99.90
52016;DHT22;38032;53.326;6.472;2023-12-20T06:33:43;7.80;99.90
52016;DHT22;38032;53.326;6.472;2023-12-20T06:36:15;7.80;99.90
52016;DHT22;38032;53.326;6.472;2023-12-20T06:38:41;7.80;99.90
52016;DHT22;38032;53.326;6.472;2023-12-20T06:41:07;7.90;99.90
52016;DHT22;38032;53.326;6.472;2023-12-20T06:43:33;7.90;99.90
52016;DHT22;38032;53.326;6.472;2023-12-20T06:46:00;7.90;99.90
52016;DHT22;38032;53.326;6.472;2023-12-20T06:48:26;7.90;99.90
52016;DHT22;38032;53.326;6.472;2023-12-20T06:50:53;7.90;99.90
52016;DHT22;38032;53.326;6.472;2023-12-20T06:53:18;7.90;99.90
52016;DHT22;38032;53.326;6.472;2023-12-20T06:55:44;7.90;99.90
52016;DHT22;38032;53.326;6.472;2023-12-20T06:58:10;8.00;99.90
52016;DHT22;38032;53.326;6.472;2023-12-20T07:00:36;8.00;99.90
52016;DHT22;38032;53.326;6.472;2023-12-20T07:03:02;8.00;99.90
52016;DHT22;38032;53.326;6.472;2023-12-20T07:05:28;8.00;99.90
52016;DHT22;38032;53.326;6.472;2023-12-20T07:07:53;8.10;99.90
52016;DHT22;38032;53.326;6.472;2023-12-20T07:10:19;8.00;99.90
52016;DHT22;38032;53.326;6.472;2023-12-20T07:12:45;8.10;99.90
52016;DHT22;38032;53.326;6.472;2023-12-20T07:15:11;8.10;99.90
52016;DHT22;38032;53.326;6.472;2023-12-20T07:17:37;8.10;99.90
52016;DHT22;38032;53.326;6.472;2023-12-20T07:20:03;8.10;99.90
52016;DHT22;38032;53.326;6.472;2023-12-20T07:22:30;8.10;99.90
52016;DHT22;38032;53.326;6.472;2023-12-20T07:24:58;8.10;99.90
52016;DHT22;38032;53.326;6.472;2023-12-20T07:27:24;8.10;99.90
52016;DHT22;38032;53.326;6.472;2023-12-20T07:29:50;8.10;99.90
52016;DHT22;38032;53.326;6.472;2023-12-20T07:32:16;8.10;99.90
52016;DHT22;38032;53.326;6.472;2023-12-20T07:34:42;8.10;99.90
52016;DHT22;38032;53.326;6.472;2023-12-20T07:37:07;8.10;99.90
52016;DHT22;38032;53.326;6.472;2023-12-20T07:39:36;8.10;99.90
52016;DHT22;38032;53.326;6.472;2023-12-20T07:42:02;8.10;99.90
52016;DHT22;38032;53.326;6.472;2023-12-20T07:44:27;8.10;99.90
52016;DHT22;38032;53.326;6.472;2023-12-20T07:46:53;8.10;99.90
52016;DHT22;38032;53.326;6.472;2023-12-20T07:49:19;8.20;99.90
52016;DHT22;38032;53.326;6.472;2023-12-20T07:51:46;8.10;99.90
52016;DHT22;38032;53.326;6.472;2023-12-20T07:54:12;8.10;99.90
52016;DHT22;38032;53.326;6.472;2023-12-20T07:56:38;8.20;99.90
52016;DHT22;38032;53.326;6.472;2023-12-20T07:59:05;8.20;99.90
52016;DHT22;38032;53.326;6.472;2023-12-20T08:01:31;8.20;99.90
52016;DHT22;38032;53.326;6.472;2023-12-20T08:03:57;8.20;99.90
52016;DHT22;38032;53.326;6.472;2023-12-20T08:06:23;8.20;99.90
52016;DHT22;38032;53.326;6.472;2023-12-20T08:08:49;8.20;99.90
52016;DHT22;38032;53.326;6.472;2023-12-20T08:11:15;8.20;99.90
52016;DHT22;38032;53.326;6.472;2023-12-20T08:13:41;8.20;99.90
52016;DHT22;38032;53.326;6.472;2023-12-20T08:16:06;8.20;99.90
52016;DHT22;38032;53.326;6.472;2023-12-20T08:18:32;8.30;99.90
52016;DHT22;38032;53.326;6.472;2023-12-20T08:20:59;8.30;99.90
52016;DHT22;38032;53.326;6.472;2023-12-20T08:23:25;8.40;99.90
52016;DHT22;38032;53.326;6.472;2023-12-20T08:25:51;8.30;99.90
52016;DHT22;38032;53.326;6.472;2023-12-20T08:28:17;8.10;99.90
52016;DHT22;38032;53.326;6.472;2023-12-20T08:30:43;8.00;99.90
52016;DHT22;38032;53.326;6.472;2023-12-20T08:33:09;7.90;99.90
52016;DHT22;38032;53.326;6.472;2023-12-20T08:35:39;7.80;99.90
52016;DHT22;38032;53.326;6.472;2023-12-20T08:38:06;7.70;99.90
52016;DHT22;38032;53.326;6.472;2023-12-20T08:40:31;7.60;99.90
52016;DHT22;38032;53.326;6.472;2023-12-20T08:42:57;7.60;99.90
52016;DHT22;38032;53.326;6.472;2023-12-20T08:45:23;7.50;99.90
52016;DHT22;38032;53.326;6.472;2023-12-20T08:47:50;7.40;99.90
52016;DHT22;38032;53.326;6.472;2023-12-20T08:50:16;7.40;99.90
52016;DHT22;38032;53.326;6.472;2023-12-20T08:52:42;7.40;99.90
52016;DHT22;38032;53.326;6.472;2023-12-20T08:55:08;7.30;99.90
52016;DHT22;38032;53.326;6.472;2023-12-20T08:57:36;7.30;99.90
52016;DHT22;38032;53.326;6.472;2023-12-20T09:00:02;7.30;99.90
52016;DHT22;38032;53.326;6.472;2023-12-20T09:02:28;7.20;99.90
52016;DHT22;38032;53.326;6.472;2023-12-20T09:04:54;7.20;99.90
52016;DHT22;38032;53.326;6.472;2023-12-20T09:07:25;7.20;99.90
52016;DHT22;38032;53.326;6.472;2023-12-20T09:09:52;7.20;99.90
52016;DHT22;38032;53.326;6.472;2023-12-20T09:12:20;7.20;99.90
52016;DHT22;38032;53.326;6.472;2023-12-20T09:14:47;7.30;99.90
52016;DHT22;38032;53.326;6.472;2023-12-20T09:17:13;7.30;99.90
52016;DHT22;38032;53.326;6.472;2023-12-20T09:19:39;7.30;99.90
52016;DHT22;38032;53.326;6.472;2023-12-20T09:22:05;7.30;99.90
52016;DHT22;38032;53.326;6.472;2023-12-20T09:24:32;7.40;99.90
52016;DHT22;38032;53.326;6.472;2023-12-20T09:26:58;7.40;99.90
52016;DHT22;38032;53.326;6.472;2023-12-20T09:29:23;7.50;99.90
52016;DHT22;38032;53.326;6.472;2023-12-20T09:31:50;7.50;99.90
52016;DHT22;38032;53.326;6.472;2023-12-20T09:34:16;7.50;99.90
52016;DHT22;38032;53.326;6.472;2023-12-20T09:36:43;7.60;99.90
52016;DHT22;38032;53.326;6.472;2023-12-20T09:39:14;7.60;99.90
52016;DHT22;38032;53.326;6.472;2023-12-20T09:41:43;7.80;99.90
52016;DHT22;38032;53.326;6.472;2023-12-20T09:44:15;7.80;99.90
52016;DHT22;38032;53.326;6.472;2023-12-20T09:46:45;7.90;99.90
52016;DHT22;38032;53.326;6.472;2023-12-20T09:49:12;7.90;99.90
52016;DHT22;38032;53.326;6.472;2023-12-20T09:51:39;7.90;99.90
52016;DHT22;38032;53.326;6.472;2023-12-20T09:54:06;7.90;99.90
52016;DHT22;38032;53.326;6.472;2023-12-20T09:56:32;7.90;99.90
52016;DHT22;38032;53.326;6.472;2023-12-20T09:58:59;8.00;99.90
52016;DHT22;38032;53.326;6.472;2023-12-20T10:01:26;8.10;99.90
52016;DHT22;38032;53.326;6.472;2023-12-20T10:03:54;8.30;99.90
52016;DHT22;38032;53.326;6.472;2023-12-20T10:06:21;8.40;99.90
52016;DHT22;38032;53.326;6.472;2023-12-20T10:08:47;8.60;99.90
52016;DHT22;38032;53.326;6.472;2023-12-20T10:11:13;8.70;99.90
52016;DHT22;38032;53.326;6.472;2023-12-20T10:13:40;8.70;99.90
52016;DHT22;38032;53.326;6.472;2023-12-20T10:16:07;8.80;99.90
52016;DHT22;38032;53.326;6.472;2023-12-20T10:18:33;8.90;99.90
52016;DHT22;38032;53.326;6.472;2023-12-20T10:21:00;9.00;99.90
52016;DHT22;38032;53.326;6.472;2023-12-20T10:23:26;9.10;99.90
52016;DHT22;38032;53.326;6.472;2023-12-20T10:25:57;9.20;99.90
52016;DHT22;38032;53.326;6.472;2023-12-20T10:28:24;9.30;99.90
52016;DHT22;38032;53.326;6.472;2023-12-20T10:30:54;9.40;99.90
52016;DHT22;38032;53.326;6.472;2023-12-20T10:33:27;9.60;99.90
52016;DHT22;38032;53.326;6.472;2023-12-20T10:35:55;9.60;99.90
52016;DHT22;38032;53.326;6.472;2023-12-20T10:38:21;9.60;99.90
52016;DHT22;38032;53.326;6.472;2023-12-20T10:40:48;9.50;99.90
52016;DHT22;38032;53.326;6.472;2023-12-20T10:43:15;9.50;99.90
52016;DHT22;38032;53.326;6.472;2023-12-20T10:45:42;9.50;99.90
52016;DHT22;38032;53.326;6.472;2023-12-20T10:48:10;9.50;99.90
52016;DHT22;38032;53.326;6.472;2023-12-20T10:50:38;9.50;99.90
52016;DHT22;38032;53.326;6.472;2023-12-20T10:53:04;9.60;99.90
52016;DHT22;38032;53.326;6.472;2023-12-20T10:55:30;9.60;99.90
52016;DHT22;38032;53.326;6.472;2023-12-20T10:58:01;9.70;99.90
52016;DHT22;38032;53.326;6.472;2023-12-20T11:00:29;9.70;99.90
52016;DHT22;38032;53.326;6.472;2023-12-20T11:03:00;9.80;99.90
52016;DHT22;38032;53.326;6.472;2023-12-20T11:08:17;9.90;99.90
52016;DHT22;38032;53.326;6.472;2023-12-20T11:10:59;9.80;99.90
52016;DHT22;38032;53.326;6.472;2023-12-20T11:13:32;9.80;99.90
52016;DHT22;38032;53.326;6.472;2023-12-20T11:16:00;9.70;99.90
52016;DHT22;38032;53.326;6.472;2023-12-20T11:18:29;9.60;99.90
52016;DHT22;38032;53.326;6.472;2023-12-20T11:21:01;9.60;99.90
52016;DHT22;38032;53.326;6.472;2023-12-20T11:23:30;9.60;99.90
52016;DHT22;38032;53.326;6.472;2023-12-20T11:25:57;9.80;99.90
52016;DHT22;38032;53.326;6.472;2023-12-20T11:28:25;9.80;99.90
52016;DHT22;38032;53.326;6.472;2023-12-20T11:30:54;9.90;99.90
52016;DHT22;38032;53.326;6.472;2023-12-20T11:33:23;9.80;99.90
52016;DHT22;38032;53.326;6.472;2023-12-20T11:35:49;9.80;99.90
52016;DHT22;38032;53.326;6.472;2023-12-20T11:38:15;9.80;99.90
52016;DHT22;38032;53.326;6.472;2023-12-20T11:40:42;9.80;99.90
52016;DHT22;38032;53.326;6.472;2023-12-20T11:43:08;9.70;99.90
52016;DHT22;38032;53.326;6.472;2023-12-20T11:45:34;9.70;99.90
52016;DHT22;38032;53.326;6.472;2023-12-20T11:48:02;9.70;99.90
52016;DHT22;38032;53.326;6.472;2023-12-20T11:50:28;9.70;99.90
52016;DHT22;38032;53.326;6.472;2023-12-20T11:52:56;9.60;99.90
52016;DHT22;38032;53.326;6.472;2023-12-20T11:55:23;9.60;99.90
52016;DHT22;38032;53.326;6.472;2023-12-20T11:57:50;9.50;99.90
52016;DHT22;38032;53.326;6.472;2023-12-20T12:00:17;9.50;99.90
52016;DHT22;38032;53.326;6.472;2023-12-20T12:02:43;9.50;99.90
52016;DHT22;38032;53.326;6.472;2023-12-20T12:05:09;9.50;99.90
52016;DHT22;38032;53.326;6.472;2023-12-20T12:07:35;9.50;99.90
52016;DHT22;38032;53.326;6.472;2023-12-20T12:10:01;9.50;99.90
52016;DHT22;38032;53.326;6.472;2023-12-20T12:12:29;9.40;99.90
52016;DHT22;38032;53.326;6.472;2023-12-20T12:14:55;9.40;99.90
52016;DHT22;38032;53.326;6.472;2023-12-20T12:17:23;9.40;99.90
52016;DHT22;38032;53.326;6.472;2023-12-20T12:19:49;9.30;99.90
52016;DHT22;38032;53.326;6.472;2023-12-20T12:22:15;9.30;99.90
52016;DHT22;38032;53.326;6.472;2023-12-20T12:24:43;9.30;99.90
52016;DHT22;38032;53.326;6.472;2023-12-20T12:27:09;9.30;99.90
52016;DHT22;38032;53.326;6.472;2023-12-20T12:29:36;9.20;99.90
52016;DHT22;38032;53.326;6.472;2023-12-20T12:32:07;9.20;99.90
52016;DHT22;38032;53.326;6.472;2023-12-20T12:34:34;9.20;99.90
52016;DHT22;38032;53.326;6.472;2023-12-20T12:37:00;9.20;99.90
52016;DHT22;38032;53.326;6.472;2023-12-20T12:39:26;9.20;99.90
52016;DHT22;38032;53.326;6.472;2023-12-20T12:41:52;9.20;99.90
52016;DHT22;38032;53.326;6.472;2023-12-20T12:44:19;9.20;99.90
52016;DHT22;38032;53.326;6.472;2023-12-20T12:46:46;9.20;99.90
52016;DHT22;38032;53.326;6.472;2023-12-20T12:49:12;9.30;99.90
52016;DHT22;38032;53.326;6.472;2023-12-20T12:51:38;9.30;99.90
52016;DHT22;38032;53.326;6.472;2023-12-20T12:54:04;9.30;99.90
52016;DHT22;38032;53.326;6.472;2023-12-20T12:56:30;9.40;99.90
52016;DHT22;38032;53.326;6.472;2023-12-20T12:58:56;9.30;99.90
52016;DHT22;38032;53.326;6.472;2023-12-20T13:01:22;9.30;99.90
52016;DHT22;38032;53.326;6.472;2023-12-20T13:03:48;9.30;99.90
52016;DHT22;38032;53.326;6.472;2023-12-20T13:06:14;9.30;99.90
52016;DHT22;38032;53.326;6.472;2023-12-20T13:08:39;9.30;99.90
52016;DHT22;38032;53.326;6.472;2023-12-20T13:11:05;9.30;99.90
52016;DHT22;38032;53.326;6.472;2023-12-20T13:13:31;9.30;99.90
52016;DHT22;38032;53.326;6.472;2023-12-20T13:15:57;9.30;99.90
52016;DHT22;38032;53.326;6.472;2023-12-20T13:18:23;9.30;99.90
52016;DHT22;38032;53.326;6.472;2023-12-20T13:20:49;9.30;99.90
52016;DHT22;38032;53.326;6.472;2023-12-20T13:23:15;9.30;99.90
52016;DHT22;38032;53.326;6.472;2023-12-20T13:25:44;9.30;99.90
52016;DHT22;38032;53.326;6.472;2023-12-20T13:28:11;9.30;99.90
52016;DHT22;38032;53.326;6.472;2023-12-20T13:30:37;9.30;99.90
52016;DHT22;38032;53.326;6.472;2023-12-20T13:33:04;9.20;99.90
52016;DHT22;38032;53.326;6.472;2023-12-20T13:35:31;9.20;99.90
52016;DHT22;38032;53.326;6.472;2023-12-20T13:37:58;9.10;99.90
52016;DHT22;38032;53.326;6.472;2023-12-20T13:40:24;9.00;99.90
52016;DHT22;38032;53.326;6.472;2023-12-20T13:42:50;9.00;99.90
52016;DHT22;38032;53.326;6.472;2023-12-20T13:45:16;8.90;99.90
52016;DHT22;38032;53.326;6.472;2023-12-20T13:47:42;8.90;99.90
52016;DHT22;38032;53.326;6.472;2023-12-20T13:50:08;8.80;99.90
52016;DHT22;38032;53.326;6.472;2023-12-20T13:52:34;8.80;99.90
52016;DHT22;38032;53.326;6.472;2023-12-20T13:54:59;8.80;99.90
52016;DHT22;38032;53.326;6.472;2023-12-20T13:57:25;8.70;99.90
52016;DHT22;38032;53.326;6.472;2023-12-20T13:59:51;8.70;99.90
52016;DHT22;38032;53.326;6.472;2023-12-20T14:02:17;8.70;99.90
52016;DHT22;38032;53.326;6.472;2023-12-20T14:04:43;8.70;99.90
52016;DHT22;38032;53.326;6.472;2023-12-20T14:07:09;8.70;99.90
52016;DHT22;38032;53.326;6.472;2023-12-20T14:09:35;8.70;99.90
52016;DHT22;38032;53.326;6.472;2023-12-20T14:12:01;8.60;99.90
52016;DHT22;38032;53.326;6.472;2023-12-20T14:14:27;8.70;99.90
52016;DHT22;38032;53.326;6.472;2023-12-20T14:16:53;8.70;99.90
52016;DHT22;38032;53.326;6.472;2023-12-20T14:19:19;8.70;99.90
52016;DHT22;38032;53.326;6.472;2023-12-20T14:21:45;8.70;99.90
52016;DHT22;38032;53.326;6.472;2023-12-20T14:24:13;8.70;99.90
52016;DHT22;38032;53.326;6.472;2023-12-20T14:26:41;8.70;99.90
52016;DHT22;38032;53.326;6.472;2023-12-20T14:29:07;8.60;99.90
52016;DHT22;38032;53.326;6.472;2023-12-20T14:31:33;8.60;99.90
52016;DHT22;38032;53.326;6.472;2023-12-20T14:33:59;8.60;99.90
52016;DHT22;38032;53.326;6.472;2023-12-20T14:36:29;8.60;99.90
52016;DHT22;38032;53.326;6.472;2023-12-20T14:38:57;8.50;99.90
52016;DHT22;38032;53.326;6.472;2023-12-20T14:41:22;8.50;99.90
52016;DHT22;38032;53.326;6.472;2023-12-20T14:43:50;8.50;99.90
52016;DHT22;38032;53.326;6.472;2023-12-20T14:46:17;8.40;99.90
52016;DHT22;38032;53.326;6.472;2023-12-20T14:48:44;8.40;99.90
52016;DHT22;38032;53.326;6.472;2023-12-20T14:51:09;8.30;99.90
52016;DHT22;38032;53.326;6.472;2023-12-20T14:53:37;8.30;99.90
52016;DHT22;38032;53.326;6.472;2023-12-20T14:56:04;8.20;99.90
52016;DHT22;38032;53.326;6.472;2023-12-20T14:58:31;8.10;99.90
52016;DHT22;38032;53.326;6.472;2023-12-20T15:00:58;8.10;99.90
52016;DHT22;38032;53.326;6.472;2023-12-20T15:03:24;8.10;99.90
52016;DHT22;38032;53.326;6.472;2023-12-20T15:05:49;8.00;99.90
52016;DHT22;38032;53.326;6.472;2023-12-20T15:08:15;8.00;99.90
52016;DHT22;38032;53.326;6.472;2023-12-20T15:10:41;8.00;99.90
52016;DHT22;38032;53.326;6.472;2023-12-20T15:13:07;7.90;99.90
52016;DHT22;38032;53.326;6.472;2023-12-20T15:15:33;7.90;99.90
52016;DHT22;38032;53.326;6.472;2023-12-20T15:17:59;8.00;99.90
52016;DHT22;38032;53.326;6.472;2023-12-20T15:20:25;8.00;99.90
52016;DHT22;38032;53.326;6.472;2023-12-20T15:22:51;8.00;99.90
52016;DHT22;38032;53.326;6.472;2023-12-20T15:25:18;8.00;99.90
52016;DHT22;38032;53.326;6.472;2023-12-20T15:27:49;8.00;99.90
52016;DHT22;38032;53.326;6.472;2023-12-20T15:30:19;8.00;99.90
52016;DHT22;38032;53.326;6.472;2023-12-20T15:32:45;8.00;99.90
52016;DHT22;38032;53.326;6.472;2023-12-20T15:35:11;8.00;99.90
52016;DHT22;38032;53.326;6.472;2023-12-20T15:37:38;8.00;99.90
52016;DHT22;38032;53.326;6.472;2023-12-20T15:40:07;8.00;99.90
52016;DHT22;38032;53.326;6.472;2023-12-20T15:42:33;8.00;99.90